Аэропорт: Полярный. Удачный

ICAO: UERP

METAR:
2021-07-28 12:00:00
UERP 281200Z 09004MPS 1500 R35/1500 HZ SCT033 21/15 Q1011 R35/090060 NOSIG RMK QFE714
METAR:
2021-07-28 11:00:00
TAF UERP 281100Z 2812/2912 10003G08MPS 1000 HZ SCT025 TX28/2906Z TN20/2818Z TEMPO 2812/2818 0500 HZ VV007